Amity, Missouri
Current Conditions -  °F | °C
As of 2:53 AM on Sunday 21 Dec 2014 (Local Time) from KSTJ Reporting Station
Haze Haze  
Wind Chill: 26°   Ceiling: Unl
Heat Index: 33°   Visibility: 6mi
Dew Point: 31°   Wind: 8mph
Humidity: 92%   Direction: 170°S
Pressure: 30.09"   Gusts: NA
Location:  39.87°N, 94.44°W
Report Text: KSTJ 210853Z AUTO 17007KT 6SM BR CLR 01/M01 A3009 RMK AO2 SLP194 T00061006 56003
Loading
Personal Weather Stations






























Interactive Weather Map New forecast layout! Learn more

10-Day Weather Forecast

Advertisements
Track Severe Weather on mobile